Time;durP1;ratioP1;P1;durP2;ratioP2;P2;SDS_P1;SDS_P2;PMS_P1;PMS_P2;Temp;Humidity;BMP_temperature;BMP_pressure;BME280_temperature;BME280_humidity;BME280_pressure;Samples;Min_cycle;Max_cycle;Signal;HPM_P1;HPM_P2
2021/06/13 00:02:20;;;;;;;17.75;8.13;;;12.50;97.70;;;;;;5017065;28;20061;-70
2021/06/13 00:04:46;;;;;;;15.95;7.72;;;12.50;97.80;;;;;;5017284;28;20390;-71
2021/06/13 00:07:12;;;;;;;19.42;7.65;;;12.40;97.70;;;;;;5017395;28;20041;-71
2021/06/13 00:09:38;;;;;;;12.40;7.15;;;12.50;97.90;;;;;;5016219;28;20044;-70
2021/06/13 00:12:08;;;;;;;14.13;7.10;;;12.40;97.90;;;;;;5016958;28;20062;-71
2021/06/13 00:14:34;;;;;;;21.70;7.05;;;12.40;98.00;;;;;;5017002;28;20041;-72
2021/06/13 00:17:00;;;;;;;17.52;8.15;;;12.40;98.00;;;;;;5017053;28;20497;-71
2021/06/13 00:19:26;;;;;;;17.27;8.38;;;12.40;98.10;;;;;;5016435;28;20050;-71
2021/06/13 00:21:51;;;;;;;14.00;8.20;;;12.30;98.20;;;;;;5017030;28;20374;-71
2021/06/13 00:24:17;;;;;;;17.23;7.68;;;12.30;98.30;;;;;;5016643;28;20074;-71
2021/06/13 00:26:43;;;;;;;17.27;7.60;;;12.30;98.40;;;;;;5016578;28;20049;-71
2021/06/13 00:29:09;;;;;;;14.70;7.63;;;12.30;98.40;;;;;;5016175;28;20038;-72
2021/06/13 00:31:35;;;;;;;17.23;7.82;;;12.30;98.40;;;;;;5016132;28;20117;-71
2021/06/13 00:34:01;;;;;;;21.60;8.05;;;12.30;98.50;;;;;;5015199;28;20048;-70
2021/06/13 00:36:26;;;;;;;14.95;7.80;;;12.30;98.50;;;;;;5016879;28;20112;-69
2021/06/13 00:38:52;;;;;;;15.60;8.80;;;12.30;98.50;;;;;;5016003;28;20034;-70
2021/06/13 00:41:20;;;;;;;16.30;8.27;;;12.20;98.50;;;;;;5016326;28;20092;-69
2021/06/13 00:43:46;;;;;;;19.77;8.57;;;12.20;98.60;;;;;;5016412;28;20081;-69
2021/06/13 00:46:12;;;;;;;16.98;8.57;;;12.20;98.70;;;;;;5016297;28;20458;-69
2021/06/13 00:48:38;;;;;;;20.00;9.73;;;12.20;98.80;;;;;;5015879;28;20092;-69
2021/06/13 00:51:04;;;;;;;23.00;8.77;;;12.20;98.90;;;;;;5016582;28;20454;-69
2021/06/13 00:53:30;;;;;;;18.80;8.27;;;12.10;99.00;;;;;;5015824;28;20512;-69
2021/06/13 00:55:57;;;;;;;14.32;8.32;;;12.10;99.00;;;;;;5016110;28;20044;-69
2021/06/13 00:58:23;;;;;;;15.18;8.63;;;12.10;99.10;;;;;;5016137;28;20123;-70
2021/06/13 01:00:49;;;;;;;17.60;9.00;;;12.10;99.00;;;;;;5014344;28;20081;-69
2021/06/13 01:03:15;;;;;;;16.75;8.65;;;12.10;99.00;;;;;;5015573;28;20042;-69
2021/06/13 01:05:42;;;;;;;15.80;8.27;;;12.10;99.00;;;;;;5015802;28;20111;-69
2021/06/13 01:08:48;;;;;;;17.05;8.20;;;12.10;99.10;;;;;;5016254;28;20038;-69
2021/06/13 01:11:48;;;;;;;22.23;9.10;;;12.10;99.10;;;;;;5015870;28;20038;-69
2021/06/13 01:14:37;;;;;;;25.10;9.18;;;12.10;99.30;;;;;;5013771;28;20453;-69
2021/06/13 01:17:11;;;;;;;17.70;8.75;;;12.10;99.30;;;;;;5015487;28;20478;-69
2021/06/13 01:20:09;;;;;;;19.33;8.13;;;12.10;99.40;;;;;;5015086;28;20069;-69
2021/06/13 01:23:12;;;;;;;17.35;8.70;;;12.00;99.40;;;;;;5015262;28;20042;-69
2021/06/13 01:26:06;;;;;;;16.73;9.23;;;12.00;99.40;;;;;;5016000;28;20069;-69
2021/06/13 01:28:54;;;;;;;15.63;8.55;;;11.90;99.70;;;;;;5013837;28;20113;-69
2021/06/13 01:31:23;;;;;;;19.23;9.43;;;11.90;99.60;;;;;;5015261;28;20498;-69
2021/06/13 01:33:52;;;;;;;17.85;9.20;;;11.90;99.60;;;;;;5015507;28;20069;-69
2021/06/13 01:36:19;;;;;;;16.42;8.68;;;11.90;99.60;;;;;;5015107;28;20034;-69
2021/06/13 01:38:46;;;;;;;18.77;8.93;;;11.90;99.70;;;;;;5014918;28;20092;-69
2021/06/13 01:41:16;;;;;;;20.23;9.68;;;11.90;99.70;;;;;;5015646;28;20066;-69
2021/06/13 01:43:43;;;;;;;21.73;9.93;;;11.90;99.70;;;;;;5015510;28;20076;-69
2021/06/13 01:46:09;;;;;;;20.85;9.05;;;11.80;99.60;;;;;;5015021;28;20507;-69
2021/06/13 01:48:38;;;;;;;18.30;8.32;;;11.80;99.60;;;;;;5014764;28;20041;-70
2021/06/13 01:51:04;;;;;;;16.98;9.07;;;11.70;99.60;;;;;;5014773;28;20037;-69
2021/06/13 01:53:41;;;;;;;18.20;8.85;;;11.70;99.70;;;;;;5014793;28;20447;-69
2021/06/13 01:56:10;;;;;;;20.85;9.40;;;11.70;99.80;;;;;;5015235;28;20486;-69
2021/06/13 01:58:38;;;;;;;17.55;9.48;;;11.70;99.80;;;;;;5013741;28;20034;-69
2021/06/13 02:01:11;;;;;;;22.38;10.13;;;11.60;99.80;;;;;;5015125;28;20061;-70
2021/06/13 02:03:40;;;;;;;23.35;10.15;;;11.60;99.90;;;;;;5014834;28;20390;-69
2021/06/13 02:06:07;;;;;;;16.98;8.68;;;11.60;99.90;;;;;;5014767;28;20121;-69
2021/06/13 02:08:35;;;;;;;21.05;10.88;;;11.50;99.90;;;;;;5014216;28;20041;-70
2021/06/13 02:11:04;;;;;;;22.30;9.55;;;11.50;99.90;;;;;;5014417;28;20125;-69
2021/06/13 02:13:31;;;;;;;17.65;9.65;;;11.50;99.90;;;;;;5014877;28;20037;-69
2021/06/13 02:15:59;;;;;;;19.50;9.35;;;11.50;99.90;;;;;;5014968;28;20045;-69
2021/06/13 02:18:27;;;;;;;22.40;10.30;;;11.50;99.90;;;;;;5014801;28;20117;-69
2021/06/13 02:20:55;;;;;;;17.92;10.45;;;11.50;99.90;;;;;;5014224;28;20510;-69
2021/06/13 02:23:24;;;;;;;16.23;9.80;;;11.50;99.90;;;;;;5014167;28;20046;-69
2021/06/13 02:25:50;;;;;;;21.08;9.30;;;11.50;99.90;;;;;;5014310;28;20038;-69
2021/06/13 02:28:16;;;;;;;19.02;9.38;;;11.40;99.90;;;;;;5012996;28;20040;-69
2021/06/13 02:30:44;;;;;;;22.70;9.98;;;11.40;99.90;;;;;;5014005;28;20073;-69
2021/06/13 02:33:11;;;;;;;14.65;7.90;;;11.40;99.90;;;;;;5014619;28;20068;-69
2021/06/13 02:35:44;;;;;;;23.08;9.70;;;11.40;99.90;;;;;;5014048;28;20117;-69
2021/06/13 02:38:11;;;;;;;;;;;11.40;99.90;;;;;;5014424;28;20070;-69
2021/06/13 02:40:37;;;;;;;18.80;9.02;;;11.30;99.90;;;;;;5013592;28;20444;-69
2021/06/13 02:43:02;;;;;;;18.90;9.10;;;11.30;99.90;;;;;;5013894;28;20077;-69
2021/06/13 02:45:28;;;;;;;16.92;9.23;;;11.30;99.90;;;;;;5013933;28;20045;-69
2021/06/13 02:47:54;;;;;;;17.85;9.18;;;11.30;99.90;;;;;;5013903;28;20038;-69
2021/06/13 02:50:22;;;;;;;20.60;9.63;;;11.30;99.90;;;;;;5013681;28;20176;-69
2021/06/13 02:52:58;;;;;;;20.10;9.45;;;11.30;99.90;;;;;;5014114;28;20065;-69
2021/06/13 02:55:35;;;;;;;20.77;9.77;;;11.30;99.90;;;;;;5014509;28;20044;-69
2021/06/13 02:58:19;;;;;;;26.52;10.75;;;11.30;99.90;;;;;;5013695;28;20049;-69
2021/06/13 03:00:47;;;;;;;24.67;9.63;;;11.30;99.90;;;;;;5013437;28;20042;-69
2021/06/13 03:03:16;;;;;;;24.05;9.10;;;11.30;99.90;;;;;;5013646;28;20042;-69
2021/06/13 03:05:42;;;;;;;21.80;9.68;;;11.30;99.90;;;;;;5014181;28;20117;-69
2021/06/13 03:08:09;;;;;;;22.80;10.20;;;11.30;99.90;;;;;;5014179;28;20065;-69
2021/06/13 03:10:35;;;;;;;20.38;10.65;;;11.30;99.90;;;;;;5013097;28;20434;-69
2021/06/13 03:13:03;;;;;;;24.25;9.82;;;11.30;99.90;;;;;;5013578;28;20449;-69
2021/06/13 03:15:29;;;;;;;17.50;9.40;;;11.30;99.90;;;;;;5013455;28;20044;-69
2021/06/13 03:17:56;;;;;;;19.00;9.00;;;11.30;99.90;;;;;;5013600;28;20120;-69
2021/06/13 03:20:22;;;;;;;19.45;9.50;;;11.30;99.90;;;;;;5013533;28;20038;-69
2021/06/13 03:22:48;;;;;;;19.38;8.93;;;11.30;99.90;;;;;;5013372;28;20061;-69
2021/06/13 03:25:17;;;;;;;17.45;10.15;;;11.30;99.90;;;;;;5014212;28;20485;-69
2021/06/13 03:27:44;;;;;;;22.27;9.73;;;11.30;99.90;;;;;;5013449;28;20084;-69
2021/06/13 03:30:11;;;;;;;18.55;9.50;;;11.30;99.90;;;;;;5012891;28;20041;-70
2021/06/13 03:32:37;;;;;;;21.33;9.65;;;11.30;99.90;;;;;;5013966;28;20412;-69
2021/06/13 03:35:05;;;;;;;18.20;9.55;;;11.30;99.90;;;;;;5013905;28;20375;-69
2021/06/13 03:37:31;;;;;;;20.48;9.10;;;11.30;99.90;;;;;;5013547;28;20088;-69
2021/06/13 03:39:59;;;;;;;19.52;10.23;;;11.30;99.90;;;;;;5013286;28;20100;-69
2021/06/13 03:42:25;;;;;;;18.70;8.63;;;11.30;99.90;;;;;;5013427;28;20034;-69
2021/06/13 03:44:52;;;;;;;16.65;9.25;;;11.40;99.90;;;;;;5013233;28;20080;-69
2021/06/13 03:47:19;;;;;;;22.15;10.32;;;11.30;99.90;;;;;;5013229;28;20379;-69
2021/06/13 03:49:48;;;;;;;21.33;10.13;;;11.30;99.90;;;;;;5012846;28;20034;-69
2021/06/13 03:52:14;;;;;;;19.52;10.57;;;11.30;99.90;;;;;;5013936;28;20045;-69
2021/06/13 03:54:39;;;;;;;22.27;10.32;;;11.40;99.90;;;;;;5013326;28;20046;-69
2021/06/13 03:57:07;;;;;;;18.98;9.13;;;11.40;99.90;;;;;;5013174;28;20118;-69
2021/06/13 03:59:34;;;;;;;23.20;9.77;;;11.40;99.90;;;;;;5013229;28;20066;-69
2021/06/13 04:02:02;;;;;;;20.92;10.13;;;11.40;99.90;;;;;;5013672;28;20038;-69
2021/06/13 04:04:39;;;;;;;18.05;10.05;;;11.40;99.90;;;;;;5013679;28;20049;-69
2021/06/13 04:07:07;;;;;;;18.38;10.38;;;11.50;99.90;;;;;;5013223;28;20042;-69
2021/06/13 04:09:33;;;;;;;16.77;9.38;;;11.50;99.90;;;;;;5012967;28;20038;-69
2021/06/13 04:12:01;;;;;;;19.20;11.80;;;11.50;99.90;;;;;;5013429;28;20034;-69
2021/06/13 04:14:27;;;;;;;17.88;9.52;;;11.60;99.90;;;;;;5013032;28;20044;-69
2021/06/13 04:16:54;;;;;;;18.00;9.57;;;11.60;99.90;;;;;;5013004;28;20042;-69
2021/06/13 04:19:21;;;;;;;21.65;10.63;;;11.70;99.90;;;;;;5012691;28;20061;-69
2021/06/13 04:21:47;;;;;;;20.52;9.30;;;11.70;99.90;;;;;;5015021;28;20041;-69
2021/06/13 04:24:17;;;;;;;19.50;9.57;;;11.80;99.90;;;;;;5016706;28;20054;-69
2021/06/13 04:26:43;;;;;;;16.48;9.77;;;11.90;99.90;;;;;;5016790;28;20121;-69
2021/06/13 04:29:13;;;;;;;18.02;9.55;;;11.90;99.90;;;;;;5015957;28;20505;-69
2021/06/13 04:31:38;;;;;;;19.27;9.80;;;12.00;99.90;;;;;;5016211;28;20042;-69
2021/06/13 04:34:04;;;;;;;21.60;10.02;;;12.00;99.90;;;;;;5016251;28;20042;-69
2021/06/13 04:36:30;;;;;;;16.27;8.50;;;12.10;99.90;;;;;;5016426;28;20038;-69
2021/06/13 04:38:56;;;;;;;19.08;9.38;;;12.10;99.90;;;;;;5016020;28;20116;-69
2021/06/13 04:41:22;;;;;;;22.08;10.05;;;12.20;99.90;;;;;;5016544;28;20036;-69
2021/06/13 04:43:48;;;;;;;23.30;10.48;;;12.30;99.90;;;;;;5016118;28;20038;-69
2021/06/13 04:46:17;;;;;;;17.15;9.60;;;12.40;99.90;;;;;;5016135;28;20038;-69
2021/06/13 04:48:43;;;;;;;20.55;10.38;;;12.60;99.90;;;;;;5016376;28;20490;-70
2021/06/13 04:51:12;;;;;;;18.58;8.82;;;12.90;99.90;;;;;;5016385;28;20042;-70
2021/06/13 04:53:53;;;;;;;17.88;8.85;;;13.00;99.90;;;;;;5015919;28;20042;-70
2021/06/13 04:56:24;;;;;;;18.80;9.63;;;13.40;99.90;;;;;;5016145;28;20038;-70
2021/06/13 04:58:50;;;;;;;15.73;8.55;;;13.60;99.20;;;;;;5015977;28;20045;-70
2021/06/13 05:01:16;;;;;;;19.05;9.13;;;13.80;98.90;;;;;;5015804;28;20034;-70
2021/06/13 05:03:43;;;;;;;17.45;8.88;;;14.10;98.40;;;;;;5015674;28;20057;-70
2021/06/13 05:06:09;;;;;;;16.95;9.20;;;14.20;97.90;;;;;;5015990;28;20041;-70
2021/06/13 05:08:35;;;;;;;15.32;8.10;;;14.60;97.60;;;;;;5015403;28;20501;-70
2021/06/13 05:11:02;;;;;;;17.33;9.73;;;14.70;97.00;;;;;;5015551;28;20069;-70
2021/06/13 05:13:28;;;;;;;20.65;9.48;;;14.90;96.40;;;;;;5016177;28;20042;-70
2021/06/13 05:15:54;;;;;;;14.95;7.95;;;15.00;96.10;;;;;;5015576;28;20522;-70
2021/06/13 05:18:19;;;;;;;15.00;7.97;;;15.30;95.70;;;;;;5015527;28;20041;-70
2021/06/13 05:20:52;;;;;;;15.63;7.75;;;15.60;95.20;;;;;;5014997;28;20046;-70
2021/06/13 05:23:18;;;;;;;16.70;7.47;;;15.90;94.70;;;;;;5015512;28;20042;-70
2021/06/13 05:25:44;;;;;;;15.00;7.82;;;15.90;94.10;;;;;;5015536;28;20052;-70
2021/06/13 05:28:09;;;;;;;19.83;7.57;;;16.20;93.90;;;;;;5015421;28;20486;-70
2021/06/13 05:30:36;;;;;;;17.40;7.40;;;16.40;93.70;;;;;;5014959;28;20041;-70
2021/06/13 05:33:03;;;;;;;13.43;7.22;;;16.70;93.10;;;;;;5015517;28;20050;-70
2021/06/13 05:35:29;;;;;;;15.45;7.35;;;16.80;92.60;;;;;;5015208;28;20038;-70
2021/06/13 05:37:54;;;;;;;14.88;7.18;;;16.90;92.30;;;;;;5015606;28;20049;-70
2021/06/13 05:40:21;;;;;;;17.50;8.00;;;17.00;91.90;;;;;;5014590;28;20247;-70
2021/06/13 05:42:51;;;;;;;14.52;6.57;;;17.10;91.70;;;;;;5013756;28;20120;-70
2021/06/13 05:45:18;;;;;;;15.82;6.72;;;17.30;91.70;;;;;;5015809;28;20131;-70
2021/06/13 05:47:44;;;;;;;11.13;6.43;;;17.30;91.20;;;;;;5015037;28;20108;-71
2021/06/13 05:50:11;;;;;;;13.40;6.15;;;17.60;90.80;;;;;;5014524;28;20061;-70
2021/06/13 05:52:37;;;;;;;20.13;7.00;;;17.80;91.20;;;;;;5014898;28;20147;-69
2021/06/13 05:55:05;;;;;;;12.10;6.45;;;18.20;90.50;;;;;;5015443;28;20077;-70
2021/06/13 05:57:31;;;;;;;15.18;6.00;;;18.40;89.80;;;;;;5015460;28;20045;-70
2021/06/13 06:00:09;;;;;;;12.90;5.68;;;18.50;88.70;;;;;;5014453;28;20498;-70
2021/06/13 06:02:35;;;;;;;14.95;6.10;;;18.50;86.80;;;;;;5014619;28;20034;-70
2021/06/13 06:05:02;;;;;;;14.18;6.13;;;18.50;88.30;;;;;;5014719;28;20172;-70
2021/06/13 06:07:28;;;;;;;12.98;5.22;;;18.80;88.70;;;;;;5015147;28;20045;-70
2021/06/13 06:09:54;;;;;;;14.82;4.72;;;19.00;87.80;;;;;;5014195;28;20037;-70
2021/06/13 06:12:19;;;;;;;14.70;5.47;;;19.20;86.50;;;;;;5014451;28;20391;-70
2021/06/13 06:14:46;;;;;;;13.93;5.70;;;19.00;84.20;;;;;;5014798;28;20487;-70
2021/06/13 06:17:12;;;;;;;12.13;5.00;;;19.00;83.50;;;;;;5014407;28;20408;-70
2021/06/13 06:19:38;;;;;;;12.15;5.00;;;19.20;83.60;;;;;;5014000;28;20037;-70
2021/06/13 06:22:05;;;;;;;11.05;4.60;;;19.30;81.90;;;;;;5013507;28;20042;-70
2021/06/13 06:24:32;;;;;;;11.35;4.80;;;19.40;81.50;;;;;;5014141;28;20057;-70
2021/06/13 06:26:58;;;;;;;14.27;4.97;;;19.30;81.10;;;;;;5014249;28;20092;-70
2021/06/13 06:29:24;;;;;;;10.52;4.88;;;19.50;80.80;;;;;;5014090;28;20037;-70
2021/06/13 06:31:50;;;;;;;11.00;5.15;;;19.80;80.40;;;;;;5014030;28;20041;-70
2021/06/13 06:34:16;;;;;;;14.68;5.32;;;19.80;79.40;;;;;;5014090;28;20041;-70
2021/06/13 06:36:42;;;;;;;12.55;5.22;;;19.90;78.30;;;;;;5014646;28;20038;-70
2021/06/13 06:39:08;;;;;;;10.02;4.55;;;20.10;78.30;;;;;;5013766;28;20065;-70
2021/06/13 06:41:38;;;;;;;10.30;4.55;;;20.00;77.70;;;;;;5014270;28;20084;-70
2021/06/13 06:44:05;;;;;;;11.90;4.00;;;20.10;75.90;;;;;;5012288;28;20525;-70
2021/06/13 06:46:31;;;;;;;9.27;4.70;;;20.10;76.40;;;;;;5014002;28;20038;-70
2021/06/13 06:48:57;;;;;;;12.65;4.03;;;20.10;75.60;;;;;;5014027;28;20042;-71
2021/06/13 06:51:23;;;;;;;9.63;4.68;;;20.20;75.90;;;;;;5013840;28;20073;-71
2021/06/13 06:53:48;;;;;;;7.00;4.40;;;20.30;75.30;;;;;;5013842;28;20092;-70
2021/06/13 06:56:14;;;;;;;11.30;4.80;;;20.40;75.80;;;;;;5014404;28;20041;-71
2021/06/13 06:58:40;;;;;;;8.80;4.38;;;20.60;75.30;;;;;;5013570;28;20042;-71
2021/06/13 07:01:05;;;;;;;9.48;4.75;;;20.60;74.50;;;;;;5013772;28;20068;-70
2021/06/13 07:03:31;;;;;;;9.48;4.57;;;20.60;74.70;;;;;;5013564;28;20042;-70
2021/06/13 07:05:57;;;;;;;11.00;5.00;;;20.60;73.60;;;;;;5014128;28;20038;-71
2021/06/13 07:08:23;;;;;;;11.35;4.30;;;20.70;73.10;;;;;;5013784;28;20037;-70
2021/06/13 07:10:48;;;;;;;8.07;4.30;;;20.90;72.00;;;;;;5013276;28;20034;-70
2021/06/13 07:13:14;;;;;;;8.40;3.95;;;21.00;73.30;;;;;;5013541;28;20045;-71
2021/06/13 07:15:40;;;;;;;9.52;4.30;;;20.90;73.20;;;;;;5013711;28;20038;-71
2021/06/13 07:18:06;;;;;;;9.93;4.05;;;21.40;72.90;;;;;;5013543;28;20038;-70
2021/06/13 07:20:32;;;;;;;5.85;4.35;;;21.30;69.70;;;;;;5013513;28;20562;-70
2021/06/13 07:22:58;;;;;;;5.93;3.60;;;21.30;69.90;;;;;;5013740;28;20057;-70
2021/06/13 07:25:24;;;;;;;8.10;4.20;;;21.30;69.40;;;;;;5013395;28;20038;-70
2021/06/13 07:27:50;;;;;;;9.00;3.60;;;21.40;70.20;;;;;;5013822;28;20042;-71
2021/06/13 07:30:16;;;;;;;5.95;3.15;;;21.70;70.70;;;;;;5013086;28;20042;-71
2021/06/13 07:32:42;;;;;;;7.57;3.88;;;21.70;67.70;;;;;;5013696;28;20393;-70
2021/06/13 07:35:11;;;;;;;8.40;3.75;;;21.80;66.10;;;;;;5013287;28;20490;-71
2021/06/13 07:37:38;;;;;;;9.40;4.40;;;21.90;65.80;;;;;;5013372;28;20046;-71
2021/06/13 07:40:05;;;;;;;7.32;4.05;;;21.80;66.20;;;;;;5012974;28;20065;-71
2021/06/13 07:42:31;;;;;;;6.65;3.47;;;22.00;67.20;;;;;;5013678;28;20045;-71
2021/06/13 07:44:57;;;;;;;6.75;3.72;;;22.00;65.60;;;;;;5013708;28;20052;-70
2021/06/13 07:47:23;;;;;;;7.22;3.40;;;22.20;66.00;;;;;;5016590;28;20030;-70
2021/06/13 07:49:49;;;;;;;6.43;3.67;;;22.20;65.20;;;;;;5013035;28;20049;-70
2021/06/13 07:52:16;;;;;;;7.75;3.72;;;22.30;65.60;;;;;;5014015;28;20137;-71
2021/06/13 07:54:41;;;;;;;5.22;2.90;;;22.20;63.50;;;;;;5033244;28;20060;-71
2021/06/13 07:57:07;;;;;;;8.55;2.72;;;22.30;63.70;;;;;;5035470;28;20038;-72
2021/06/13 07:59:35;;;;;;;7.95;3.33;;;22.30;63.50;;;;;;5035952;28;20044;-71
2021/06/13 08:02:01;;;;;;;10.20;3.50;;;22.30;63.60;;;;;;5037211;28;20037;-70
2021/06/13 08:04:34;;;;;;;8.18;3.88;;;22.30;64.00;;;;;;5037173;28;20390;-71
2021/06/13 08:07:00;;;;;;;6.85;3.63;;;22.50;63.10;;;;;;5037123;28;20531;-71
2021/06/13 08:09:25;;;;;;;7.70;3.50;;;22.60;64.90;;;;;;5036355;28;20164;-71
2021/06/13 08:11:51;;;;;;;13.15;4.30;;;22.40;64.30;;;;;;5036846;28;20144;-71
2021/06/13 08:14:17;;;;;;;7.00;3.30;;;22.60;64.90;;;;;;5036908;28;20076;-71
2021/06/13 08:16:42;;;;;;;7.53;3.60;;;22.70;65.20;;;;;;5036263;28;20041;-71
2021/06/13 08:19:08;;;;;;;4.97;3.33;;;22.80;63.80;;;;;;5036123;28;20041;-71
2021/06/13 08:21:35;;;;;;;7.93;3.28;;;22.70;62.60;;;;;;5036286;28;20045;-71
2021/06/13 08:24:02;;;;;;;11.57;4.25;;;22.60;60.70;;;;;;5036155;28;20045;-70
2021/06/13 08:26:28;;;;;;;6.47;3.65;;;22.80;61.30;;;;;;5036778;28;20046;-71
2021/06/13 08:28:53;;;;;;;7.85;3.83;;;22.80;60.70;;;;;;5035912;28;20088;-71
2021/06/13 08:31:22;;;;;;;8.48;3.63;;;22.70;60.90;;;;;;5036056;28;20048;-71
2021/06/13 08:33:49;;;;;;;7.35;3.60;;;22.70;60.00;;;;;;5036125;28;20088;-71
2021/06/13 08:36:15;;;;;;;5.53;3.38;;;22.50;59.50;;;;;;5035219;28;20053;-70
2021/06/13 08:38:41;;;;;;;8.77;3.72;;;23.00;59.20;;;;;;5035884;28;20199;-71
2021/06/13 08:41:06;;;;;;;8.82;3.75;;;23.00;60.50;;;;;;5036095;28;20385;-71
2021/06/13 08:43:33;;;;;;;6.95;3.38;;;23.10;60.60;;;;;;5036355;28;20065;-71
2021/06/13 08:46:00;;;;;;;5.28;3.35;;;23.10;59.50;;;;;;5035697;28;20116;-71
2021/06/13 08:48:28;;;;;;;6.78;3.00;;;23.40;59.80;;;;;;5035748;28;20442;-71
2021/06/13 08:50:54;;;;;;;5.57;3.30;;;23.30;60.90;;;;;;5035846;28;20041;-71
2021/06/13 08:53:20;;;;;;;7.43;3.28;;;23.40;60.10;;;;;;5036178;28;20048;-71
2021/06/13 08:55:45;;;;;;;8.85;3.67;;;23.50;59.20;;;;;;5036085;28;20433;-71
2021/06/13 08:58:14;;;;;;;9.00;4.25;;;23.50;57.80;;;;;;5035873;28;20493;-71
2021/06/13 09:00:41;;;;;;;7.60;3.65;;;23.40;58.70;;;;;;5036081;28;20069;-71
2021/06/13 09:03:07;;;;;;;7.03;3.67;;;23.10;59.60;;;;;;5036020;28;20041;-71
2021/06/13 09:05:34;;;;;;;6.10;3.47;;;23.20;59.00;;;;;;5036154;28;20030;-71
2021/06/13 09:08:09;;;;;;;8.88;3.72;;;23.20;58.70;;;;;;5035138;28;20044;-71
2021/06/13 09:10:36;;;;;;;6.95;3.00;;;23.20;57.50;;;;;;5035039;28;20500;-71
2021/06/13 09:13:16;;;;;;;6.75;3.28;;;23.30;58.80;;;;;;5035899;28;20045;-71
2021/06/13 09:15:45;;;;;;;6.95;3.45;;;23.50;59.60;;;;;;5035833;28;20116;-71
2021/06/13 09:18:27;;;;;;;8.07;3.50;;;23.50;60.60;;;;;;5035785;28;20462;-71
2021/06/13 09:20:52;;;;;;;8.30;3.50;;;23.70;56.80;;;;;;5035105;28;20481;-71
2021/06/13 09:23:18;;;;;;;5.72;3.72;;;23.40;56.10;;;;;;5035572;28;20080;-71
2021/06/13 09:25:46;;;;;;;7.22;3.63;;;23.50;58.50;;;;;;5035119;28;20056;-72
2021/06/13 09:28:14;;;;;;;6.55;3.35;;;23.60;58.40;;;;;;5035636;28;20042;-72
2021/06/13 09:30:43;;;;;;;5.63;3.15;;;23.60;56.80;;;;;;5034780;28;20045;-71
2021/06/13 09:33:12;;;;;;;7.72;4.07;;;23.60;59.10;;;;;;5034895;28;20124;-71
2021/06/13 09:35:39;;;;;;;7.93;3.65;;;23.60;57.60;;;;;;5035497;28;20060;-71
2021/06/13 09:38:25;;;;;;;7.63;4.10;;;23.00;57.20;;;;;;5034812;28;20083;-71
2021/06/13 09:40:57;;;;;;;6.43;3.13;;;23.20;54.80;;;;;;5034499;28;20055;-71
2021/06/13 09:43:28;;;;;;;6.88;3.60;;;23.30;57.80;;;;;;5034257;28;20462;-71
2021/06/13 09:46:03;;;;;;;6.47;3.30;;;23.10;59.40;;;;;;5035359;28;20128;-71
2021/06/13 09:48:30;;;;;;;5.35;3.17;;;23.00;57.10;;;;;;5033767;28;20037;-72
2021/06/13 09:51:01;;;;;;;7.05;3.50;;;23.10;59.40;;;;;;5034915;28;20125;-71
2021/06/13 09:53:37;;;;;;;7.55;3.60;;;23.10;59.00;;;;;;5034587;28;20041;-71
2021/06/13 09:56:17;;;;;;;4.55;3.20;;;23.30;57.40;;;;;;5034375;28;20107;-71
2021/06/13 09:59:01;;;;;;;7.95;3.85;;;23.30;57.60;;;;;;5033598;28;20499;-71
2021/06/13 10:01:37;;;;;;;7.38;3.50;;;22.90;58.00;;;;;;5034842;28;20048;-71
2021/06/13 10:04:03;;;;;;;7.95;3.67;;;23.00;60.40;;;;;;5034953;28;20044;-72
2021/06/13 10:06:32;;;;;;;6.60;3.55;;;22.90;59.50;;;;;;5034960;28;20421;-71
2021/06/13 10:08:58;;;;;;;7.85;3.63;;;22.70;58.70;;;;;;5034103;28;20033;-72
2021/06/13 10:11:25;;;;;;;7.45;4.30;;;22.70;58.90;;;;;;5034057;28;20044;-71
2021/06/13 10:13:52;;;;;;;6.38;3.50;;;22.40;60.00;;;;;;5034689;28;20056;-71
2021/06/13 10:16:38;;;;;;;10.10;4.13;;;22.40;60.60;;;;;;5034371;28;20040;-71
2021/06/13 10:19:39;;;;;;;8.80;3.97;;;22.40;62.40;;;;;;5033004;28;20037;-70
2021/06/13 10:22:06;;;;;;;10.00;3.85;;;21.00;60.10;;;;;;5033979;28;20474;-71
2021/06/13 10:24:34;;;;;;;8.15;3.80;;;21.40;65.90;;;;;;5034118;28;20042;-70
2021/06/13 10:27:06;;;;;;;8.52;4.20;;;21.50;65.40;;;;;;5033922;28;20041;-71
2021/06/13 10:29:35;;;;;;;7.53;3.70;;;21.70;65.20;;;;;;5033609;28;20079;-71
2021/06/13 10:32:04;;;;;;;7.47;3.70;;;21.90;65.50;;;;;;5034134;28;20045;-70
2021/06/13 10:34:30;;;;;;;8.43;4.18;;;21.80;64.10;;;;;;5032710;28;20061;-71
2021/06/13 10:37:01;;;;;;;6.65;3.90;;;22.20;65.80;;;;;;5034330;28;20048;-71
2021/06/13 10:39:32;;;;;;;5.07;3.15;;;22.30;65.40;;;;;;5033456;28;20592;-71
2021/06/13 10:41:59;;;;;;;7.38;3.63;;;22.30;64.90;;;;;;5033944;28;20037;-71
2021/06/13 10:44:28;;;;;;;12.02;4.82;;;22.20;63.80;;;;;;5033108;28;20041;-71
2021/06/13 10:47:07;;;;;;;10.88;4.68;;;21.90;63.60;;;;;;5034106;28;20045;-71
2021/06/13 10:49:39;;;;;;;7.03;3.58;;;22.00;66.30;;;;;;5033847;28;20476;-70
2021/06/13 10:52:10;;;;;;;6.88;3.85;;;21.70;64.60;;;;;;5034043;28;20064;-69
2021/06/13 10:54:56;;;;;;;9.57;4.10;;;21.50;63.40;;;;;;5033639;28;20084;-71
2021/06/13 10:57:22;;;;;;;6.20;3.60;;;21.70;63.30;;;;;;5034222;28;20041;-71
2021/06/13 11:00:05;;;;;;;8.93;3.95;;;21.50;64.40;;;;;;5033076;28;20379;-72
2021/06/13 11:02:34;;;;;;;6.50;3.30;;;21.80;66.80;;;;;;5033759;28;20512;-71
2021/06/13 11:05:04;;;;;;;8.60;4.18;;;21.90;64.70;;;;;;5033404;28;20038;-71
2021/06/13 11:07:36;;;;;;;8.35;3.90;;;21.80;62.70;;;;;;5033277;28;20091;-70
2021/06/13 11:10:14;;;;;;;7.25;3.75;;;21.40;63.40;;;;;;5032976;28;20095;-71
2021/06/13 11:13:04;;;;;;;9.85;4.10;;;21.70;65.80;;;;;;5033646;28;20037;-71
2021/06/13 11:15:40;;;;;;;10.15;4.40;;;21.50;63.10;;;;;;5033266;28;20041;-71
2021/06/13 11:18:15;;;;;;;8.38;4.05;;;21.70;66.80;;;;;;5033945;28;20094;-71
2021/06/13 11:20:51;;;;;;;5.22;3.85;;;22.00;69.10;;;;;;5031945;28;20065;-71
2021/06/13 11:23:23;;;;;;;9.85;4.47;;;22.00;67.90;;;;;;5033813;28;20112;-71
2021/06/13 11:25:51;;;;;;;10.68;4.57;;;22.00;67.90;;;;;;5033420;28;20072;-70
2021/06/13 11:28:29;;;;;;;12.52;4.75;;;22.00;68.40;;;;;;5033185;28;20045;-71
2021/06/13 11:30:57;;;;;;;7.18;4.30;;;22.10;67.50;;;;;;5035653;28;20037;-71
2021/06/13 11:33:34;;;;;;;9.77;4.07;;;21.90;66.90;;;;;;5037196;28;20508;-71
2021/06/13 11:36:25;;;;;;;8.60;4.18;;;22.10;65.40;;;;;;5037237;28;20533;-71
2021/06/13 11:39:13;;;;;;;8.38;4.15;;;21.40;64.00;;;;;;5037212;28;20049;-71
2021/06/13 11:42:03;;;;;;;11.75;5.03;;;21.40;64.70;;;;;;5037088;28;20033;-70
2021/06/13 11:44:36;;;;;;;7.95;4.88;;;21.30;65.80;;;;;;5031765;28;20137;-71
2021/06/13 11:47:30;;;;;;;9.60;4.15;;;21.40;67.10;;;;;;5037242;28;20033;-71
2021/06/13 11:49:57;;;;;;;7.95;4.25;;;21.50;68.00;;;;;;5036824;28;20048;-71
2021/06/13 11:52:46;;;;;;;9.82;4.90;;;21.30;67.80;;;;;;5037254;28;20370;-71
2021/06/13 11:55:12;;;;;;;12.43;4.93;;;21.50;69.60;;;;;;5037209;28;20060;-71
2021/06/13 11:57:37;;;;;;;6.75;3.92;;;21.70;70.00;;;;;;5036968;28;20478;-71
2021/06/13 12:00:15;;;;;;;8.55;3.67;;;21.80;68.50;;;;;;5036387;28;20041;-71
2021/06/13 12:02:41;;;;;;;11.07;4.03;;;21.80;67.90;;;;;;5036804;28;20045;-71
2021/06/13 12:05:08;;;;;;;9.95;4.45;;;21.70;68.20;;;;;;5036642;28;20042;-71
2021/06/13 12:07:43;;;;;;;10.38;4.32;;;21.70;67.80;;;;;;5036049;28;20141;-72
2021/06/13 12:10:28;;;;;;;9.38;4.03;;;21.60;67.70;;;;;;5036134;28;20045;-71
2021/06/13 12:13:11;;;;;;;10.38;4.93;;;21.70;70.10;;;;;;5036948;28;20120;-70
2021/06/13 12:15:37;;;;;;;10.07;4.57;;;21.80;68.50;;;;;;5036324;28;20129;-70
2021/06/13 12:18:04;;;;;;;8.23;3.60;;;21.70;67.60;;;;;;5036172;28;20080;-70
2021/06/13 12:20:30;;;;;;;9.65;4.22;;;21.60;67.70;;;;;;5035829;28;20037;-70
2021/06/13 12:23:07;;;;;;;7.40;4.15;;;21.40;67.10;;;;;;5036106;28;20037;-70
2021/06/13 12:28:28;;;;;;;10.57;4.53;;;21.50;69.70;;;;;;5036116;28;20045;-71
2021/06/13 12:30:54;;;;;;;7.78;3.88;;;21.60;68.90;;;;;;5035863;28;20045;-70
2021/06/13 12:33:21;;;;;;;9.35;4.35;;;21.60;69.30;;;;;;5036213;28;20095;-70
2021/06/13 12:35:48;;;;;;;9.48;5.13;;;21.60;68.00;;;;;;5035938;28;20048;-70
2021/06/13 12:38:16;;;;;;;7.90;4.38;;;21.60;68.70;;;;;;5036263;28;20060;-70
2021/06/13 12:40:47;;;;;;;9.20;4.13;;;21.80;68.80;;;;;;5035701;28;20042;-70
2021/06/13 12:43:14;;;;;;;5.72;3.50;;;22.00;68.60;;;;;;5035692;28;20047;-70
2021/06/13 12:45:41;;;;;;;6.65;3.83;;;22.10;66.70;;;;;;5035921;28;20042;-70
2021/06/13 12:48:10;;;;;;;9.95;4.03;;;22.20;66.30;;;;;;5035827;28;20038;-70
2021/06/13 12:50:41;;;;;;;8.63;4.05;;;22.10;65.70;;;;;;5034512;28;20045;-70
2021/06/13 12:53:11;;;;;;;8.65;3.30;;;22.20;65.10;;;;;;5035621;28;20045;-71
2021/06/13 12:55:45;;;;;;;10.30;3.90;;;22.30;65.00;;;;;;5035554;28;20498;-70